createdAt,value
2023-04-16T00:00:48.546Z,102036.06
2023-04-16T00:03:16.770Z,102038.44
2023-04-16T00:05:44.266Z,102043.03
2023-04-16T00:08:12.562Z,102045.75
2023-04-16T00:10:40.117Z,102048.38
2023-04-16T00:13:07.690Z,102058.28
2023-04-16T00:15:35.565Z,102063.22
2023-04-16T00:18:03.385Z,102047.31
2023-04-16T00:20:31.222Z,102050.72
2023-04-16T00:22:58.842Z,102049.81
2023-04-16T00:25:26.237Z,102046.03
2023-04-16T00:27:53.680Z,102050.50
2023-04-16T00:30:21.089Z,102047.16
2023-04-16T00:32:48.625Z,102043.50
2023-04-16T00:35:16.218Z,102044.00
2023-04-16T00:37:43.765Z,102045.22
2023-04-16T00:40:11.553Z,102041.56
2023-04-16T00:42:39.012Z,102049.47
2023-04-16T00:45:06.903Z,102040.66
2023-04-16T00:47:35.009Z,102044.50
2023-04-16T00:50:04.593Z,102035.03
2023-04-16T00:52:33.295Z,102036.94
2023-04-16T00:55:01.285Z,102049.47
2023-04-16T00:57:28.820Z,102046.88
2023-04-16T00:59:56.787Z,102045.38
2023-04-16T01:02:25.268Z,102058.22
2023-04-16T01:04:53.386Z,102048.63
2023-04-16T01:07:20.813Z,102050.16
2023-04-16T01:09:48.185Z,102044.41
2023-04-16T01:12:15.743Z,102045.97
2023-04-16T01:14:43.188Z,102048.63
2023-04-16T01:17:10.858Z,102043.69
2023-04-16T01:19:38.633Z,102045.50
2023-04-16T01:22:06.206Z,102043.78
2023-04-16T01:24:35.072Z,102053.47
2023-04-16T01:27:02.658Z,102046.78
2023-04-16T01:29:30.332Z,102045.44
2023-04-16T01:31:57.684Z,102036.94
2023-04-16T01:34:25.651Z,102049.34
2023-04-16T01:36:53.078Z,102040.81
2023-04-16T01:39:20.542Z,102038.03
2023-04-16T01:41:47.882Z,102041.09
2023-04-16T01:44:15.644Z,102036.72
2023-04-16T01:46:44.242Z,102037.19
2023-04-16T01:49:11.970Z,102030.50
2023-04-16T01:51:39.628Z,102037.22
2023-04-16T01:54:06.953Z,102023.59
2023-04-16T01:56:35.092Z,102029.66
2023-04-16T01:59:02.402Z,102015.38
2023-04-16T02:01:30.911Z,102023.34
2023-04-16T02:03:58.545Z,102019.22
2023-04-16T02:06:27.521Z,102028.72
2023-04-16T02:08:55.622Z,102028.94
2023-04-16T02:11:23.845Z,102031.25
2023-04-16T02:13:51.412Z,102023.63
2023-04-16T02:16:18.793Z,102019.97
2023-04-16T02:18:46.419Z,102016.94
2023-04-16T02:21:14.599Z,102022.66
2023-04-16T02:23:42.166Z,102015.13
2023-04-16T02:26:09.551Z,102013.66
2023-04-16T02:28:36.966Z,102022.78
2023-04-16T02:31:04.394Z,102028.22
2023-04-16T02:33:32.042Z,102020.56
2023-04-16T02:35:59.533Z,102031.38
2023-04-16T02:38:26.913Z,102044.38
2023-04-16T02:40:54.258Z,102032.59
2023-04-16T02:43:22.004Z,102036.00
2023-04-16T02:45:49.493Z,102034.91
2023-04-16T02:48:16.872Z,102041.81
2023-04-16T02:50:44.301Z,102038.31
2023-04-16T02:53:11.726Z,102043.06
2023-04-16T02:55:39.378Z,102040.16
2023-04-16T02:58:06.796Z,102047.91
2023-04-16T03:00:35.533Z,102042.91
2023-04-16T03:03:03.548Z,102061.97
2023-04-16T03:05:31.081Z,102068.78
2023-04-16T03:07:58.471Z,102073.41
2023-04-16T03:10:25.822Z,102072.91
2023-04-16T03:12:53.644Z,102078.97
2023-04-16T03:15:21.085Z,102084.84
2023-04-16T03:17:49.049Z,102074.25
2023-04-16T03:20:17.247Z,102083.38
2023-04-16T03:22:46.491Z,102081.38
2023-04-16T03:25:14.263Z,102080.19
2023-04-16T03:27:41.884Z,102082.50
2023-04-16T03:30:11.741Z,102085.78
2023-04-16T03:32:39.904Z,102083.25
2023-04-16T03:35:08.149Z,102096.44
2023-04-16T03:37:35.921Z,102092.56
2023-04-16T03:40:05.856Z,102093.69
2023-04-16T03:42:33.734Z,102094.91
2023-04-16T03:45:01.295Z,102106.94
2023-04-16T03:47:29.226Z,102096.75
2023-04-16T03:49:56.593Z,102099.19
2023-04-16T03:52:23.923Z,102096.63
2023-04-16T03:54:51.575Z,102098.91
2023-04-16T03:57:19.022Z,102097.19
2023-04-16T03:59:46.437Z,102107.28
2023-04-16T04:02:14.046Z,102098.16
2023-04-16T04:04:41.464Z,102088.31
2023-04-16T04:07:08.891Z,102104.06
2023-04-16T04:09:36.680Z,102105.44
2023-04-16T04:12:04.143Z,102108.13
2023-04-16T04:14:31.774Z,102109.28
2023-04-16T04:16:59.405Z,102114.25
2023-04-16T04:19:26.806Z,102096.19
2023-04-16T04:21:54.309Z,102098.75
2023-04-16T04:24:21.828Z,102102.56
2023-04-16T04:26:49.216Z,102105.66
2023-04-16T04:29:16.840Z,102110.59
2023-04-16T04:31:44.393Z,102109.19
2023-04-16T04:34:12.419Z,102108.88
2023-04-16T04:36:39.778Z,102107.31
2023-04-16T04:39:07.542Z,102111.16
2023-04-16T04:41:36.438Z,102116.69
2023-04-16T04:44:03.925Z,102112.66
2023-04-16T04:46:31.537Z,102111.16
2023-04-16T04:48:58.874Z,102111.94
2023-04-16T04:51:27.199Z,102117.72
2023-04-16T04:53:54.511Z,102125.47
2023-04-16T04:56:22.266Z,102120.06
2023-04-16T04:58:51.138Z,102114.66
2023-04-16T05:01:18.572Z,102115.38
2023-04-16T05:03:46.358Z,102117.63
2023-04-16T05:06:14.035Z,102115.63
2023-04-16T05:08:41.474Z,102122.34
2023-04-16T05:11:09.460Z,102129.28
2023-04-16T05:13:37.184Z,102121.44
2023-04-16T05:16:04.994Z,102121.19
2023-04-16T05:18:33.489Z,102112.44
2023-04-16T05:21:00.937Z,102123.31
2023-04-16T05:23:30.667Z,102125.88
2023-04-16T05:25:58.038Z,102121.97
2023-04-16T05:28:25.417Z,102126.00
2023-04-16T05:30:52.990Z,102128.44
2023-04-16T05:33:21.011Z,102124.66
2023-04-16T05:35:48.421Z,102120.91
2023-04-16T05:38:15.820Z,102121.75
2023-04-16T05:40:43.340Z,102117.59
2023-04-16T05:43:11.101Z,102106.63
2023-04-16T05:45:41.357Z,102109.81
2023-04-16T05:48:12.502Z,102104.28
2023-04-16T05:50:39.960Z,102107.56
2023-04-16T05:53:08.686Z,102102.69
2023-04-16T05:55:39.268Z,102094.34
2023-04-16T05:58:07.067Z,102104.13
2023-04-16T06:00:34.861Z,102110.22
2023-04-16T06:03:03.162Z,102126.34
2023-04-16T06:05:31.426Z,102121.78
2023-04-16T06:07:58.754Z,102119.25
2023-04-16T06:10:26.203Z,102122.41
2023-04-16T06:12:53.988Z,102133.16
2023-04-16T06:15:23.021Z,102128.00
2023-04-16T06:17:51.089Z,102124.91
2023-04-16T06:20:18.683Z,102130.88
2023-04-16T06:22:46.274Z,102131.91
2023-04-16T06:25:14.480Z,102125.09
2023-04-16T06:27:42.593Z,102134.81
2023-04-16T06:30:14.602Z,102140.06
2023-04-16T06:32:46.201Z,102138.50
2023-04-16T06:35:13.794Z,102152.81
2023-04-16T06:37:41.474Z,102135.28
2023-04-16T06:40:11.041Z,102147.03
2023-04-16T06:42:38.485Z,102141.63
2023-04-16T06:45:06.600Z,102149.38
2023-04-16T06:47:34.079Z,102148.59
2023-04-16T06:50:01.502Z,102154.91
2023-04-16T06:52:29.800Z,102164.56
2023-04-16T06:54:57.196Z,102156.06
2023-04-16T06:57:24.609Z,102159.19
2023-04-16T06:59:52.114Z,102157.69
2023-04-16T07:02:19.648Z,102166.59
2023-04-16T07:04:47.138Z,102174.22
2023-04-16T07:07:14.922Z,102162.75
2023-04-16T07:09:42.441Z,102164.16
2023-04-16T07:12:10.085Z,102157.09
2023-04-16T07:14:37.714Z,102152.63
2023-04-16T07:17:05.293Z,102153.59
2023-04-16T07:19:32.951Z,102157.53
2023-04-16T07:22:00.726Z,102146.94
2023-04-16T07:24:28.254Z,102143.09
2023-04-16T07:26:55.684Z,102143.13
2023-04-16T07:29:23.049Z,102142.53
2023-04-16T07:31:50.474Z,102138.84
2023-04-16T07:34:17.936Z,102136.00
2023-04-16T07:36:45.307Z,102141.84
2023-04-16T07:39:13.355Z,102141.75
2023-04-16T07:41:41.339Z,102137.28
2023-04-16T07:44:09.436Z,102128.53
2023-04-16T07:46:46.466Z,102134.03
2023-04-16T07:49:15.200Z,102144.56
2023-04-16T07:51:42.751Z,102136.03
2023-04-16T07:54:10.848Z,102128.94
2023-04-16T07:56:39.002Z,102131.25
2023-04-16T07:59:21.085Z,102128.38
2023-04-16T08:01:50.281Z,102127.91
2023-04-16T08:04:23.318Z,102123.84
2023-04-16T08:06:52.045Z,102130.47
2023-04-16T08:09:21.151Z,102125.31
2023-04-16T08:11:50.067Z,102127.94
2023-04-16T08:14:17.718Z,102126.41
2023-04-16T08:16:45.402Z,102119.75
2023-04-16T08:19:13.018Z,102121.66
2023-04-16T08:21:41.168Z,102106.66
2023-04-16T08:24:08.943Z,102114.41
2023-04-16T08:26:36.406Z,102109.41
2023-04-16T08:29:03.913Z,102105.91
2023-04-16T08:31:31.954Z,102108.06
2023-04-16T08:34:00.816Z,102101.44
2023-04-16T08:36:28.227Z,102111.38
2023-04-16T08:38:55.590Z,102102.53
2023-04-16T08:41:25.221Z,102095.03
2023-04-16T08:43:57.840Z,102092.63
2023-04-16T08:46:26.793Z,102095.91
2023-04-16T08:48:56.289Z,102090.56
2023-04-16T08:51:24.331Z,102080.44
2023-04-16T08:53:52.867Z,102079.94
2023-04-16T08:56:24.959Z,102090.91
2023-04-16T08:58:55.075Z,102085.94
2023-04-16T09:01:22.940Z,102077.66
2023-04-16T09:03:51.289Z,102086.78
2023-04-16T09:06:19.899Z,102079.72
2023-04-16T09:08:49.358Z,102077.44
2023-04-16T09:11:20.508Z,102082.47
2023-04-16T09:13:48.528Z,102070.00
2023-04-16T09:16:15.995Z,102070.53
2023-04-16T09:18:43.458Z,102081.69
2023-04-16T09:21:11.378Z,102063.63
2023-04-16T09:23:39.272Z,102065.06
2023-04-16T09:26:06.678Z,102062.28
2023-04-16T09:28:44.146Z,102061.53
2023-04-16T09:31:14.026Z,102057.53
2023-04-16T09:33:42.987Z,102047.97
2023-04-16T09:36:11.448Z,102056.00
2023-04-16T09:38:58.230Z,102060.66
2023-04-16T09:41:30.466Z,102053.34
2023-04-16T09:43:59.636Z,102055.38
2023-04-16T09:46:41.103Z,102058.00
2023-04-16T09:49:15.544Z,102049.53
2023-04-16T09:51:45.175Z,102057.53
2023-04-16T09:54:12.727Z,102053.91
2023-04-16T09:56:43.696Z,102051.88
2023-04-16T09:59:20.577Z,102050.03
2023-04-16T10:01:49.860Z,102049.16
2023-04-16T10:04:17.673Z,102053.66
2023-04-16T10:06:48.563Z,102056.50
2023-04-16T10:09:16.245Z,102058.34
2023-04-16T10:11:43.958Z,102051.75
2023-04-16T10:14:11.726Z,102040.72
2023-04-16T10:16:41.269Z,102057.91
2023-04-16T10:19:09.379Z,102045.00
2023-04-16T10:21:37.146Z,102045.97
2023-04-16T10:24:05.090Z,102045.13
2023-04-16T10:26:33.442Z,102050.44
2023-04-16T10:29:02.698Z,102052.31
2023-04-16T10:31:30.942Z,102033.44
2023-04-16T10:33:59.041Z,102040.00
2023-04-16T10:36:26.804Z,102032.66
2023-04-16T10:38:59.734Z,102040.91
2023-04-16T10:41:27.846Z,102027.56
2023-04-16T10:44:11.647Z,102035.38
2023-04-16T10:46:41.925Z,102036.28
2023-04-16T10:49:17.801Z,102029.22
2023-04-16T10:51:57.648Z,102030.91
2023-04-16T10:54:28.636Z,102020.84
2023-04-16T10:57:04.369Z,102021.22
2023-04-16T10:59:39.885Z,102020.81
2023-04-16T11:02:11.979Z,102024.59
2023-04-16T11:04:42.454Z,102018.31
2023-04-16T11:07:16.606Z,102026.34
2023-04-16T11:09:51.353Z,102024.66
2023-04-16T11:12:24.208Z,102012.41
2023-04-16T11:14:53.894Z,102018.69
2023-04-16T11:17:22.035Z,102010.72
2023-04-16T11:19:49.613Z,102010.97
2023-04-16T11:22:17.904Z,102018.94
2023-04-16T11:24:46.619Z,102021.25
2023-04-16T11:27:16.164Z,102011.22
2023-04-16T11:29:45.777Z,102008.66
2023-04-16T11:32:24.405Z,102013.28
2023-04-16T11:34:51.826Z,102009.94
2023-04-16T11:37:22.066Z,102009.00
2023-04-16T11:39:52.204Z,102008.00
2023-04-16T11:42:23.078Z,101996.66
2023-04-16T11:44:55.280Z,102004.78
2023-04-16T11:47:24.880Z,102001.81
2023-04-16T11:49:52.481Z,101994.00
2023-04-16T11:52:33.743Z,101993.13
2023-04-16T11:55:02.735Z,101995.88
2023-04-16T11:57:31.904Z,101996.44
2023-04-16T12:00:01.658Z,101990.63
2023-04-16T12:02:43.932Z,101991.47
2023-04-16T12:05:31.984Z,101991.03
2023-04-16T12:08:01.748Z,101981.38
2023-04-16T12:10:30.792Z,101978.22
2023-04-16T12:13:11.840Z,101966.19
2023-04-16T12:15:50.113Z,101984.69
2023-04-16T12:18:18.938Z,101979.53
2023-04-16T12:20:47.310Z,101973.97
2023-04-16T12:23:33.034Z,101968.16
2023-04-16T12:26:10.615Z,101964.50
2023-04-16T12:28:41.776Z,101955.25
2023-04-16T12:31:10.856Z,101960.00
2023-04-16T12:33:38.326Z,101962.38
2023-04-16T12:36:21.122Z,101967.03
2023-04-16T12:38:48.457Z,101957.41
2023-04-16T12:41:16.087Z,101956.44
2023-04-16T12:43:43.509Z,101962.47
2023-04-16T12:46:11.202Z,101952.06
2023-04-16T12:48:38.557Z,101954.94
2023-04-16T12:51:06.622Z,101946.75
2023-04-16T12:53:35.224Z,101951.13
2023-04-16T12:56:02.780Z,101950.41
2023-04-16T12:58:30.465Z,101945.38
2023-04-16T13:00:58.482Z,101939.69
2023-04-16T13:03:26.240Z,101948.00
2023-04-16T13:05:54.230Z,101941.66
2023-04-16T13:08:22.010Z,101951.50
2023-04-16T13:10:49.597Z,101943.94
2023-04-16T13:13:17.594Z,101937.38
2023-04-16T13:15:45.080Z,101935.25
2023-04-16T13:18:12.786Z,101939.59
2023-04-16T13:20:40.158Z,101943.47
2023-04-16T13:23:07.588Z,101936.31
2023-04-16T13:25:35.209Z,101936.69
2023-04-16T13:28:02.637Z,101933.88
2023-04-16T13:30:30.321Z,101929.09
2023-04-16T13:32:59.233Z,101928.63
2023-04-16T13:35:27.480Z,101928.50
2023-04-16T13:37:54.934Z,101917.75
2023-04-16T13:40:22.476Z,101933.28
2023-04-16T13:42:49.839Z,101925.50
2023-04-16T13:45:17.421Z,101922.94
2023-04-16T13:47:44.985Z,101921.22
2023-04-16T13:50:12.511Z,101924.44
2023-04-16T13:52:40.159Z,101920.16
2023-04-16T13:55:09.717Z,101921.66
2023-04-16T13:57:37.531Z,101917.06
2023-04-16T14:00:05.479Z,101924.44
2023-04-16T14:02:33.801Z,101924.72
2023-04-16T14:05:01.255Z,101919.91
2023-04-16T14:07:29.320Z,101925.00
2023-04-16T14:09:56.772Z,101923.81
2023-04-16T14:12:25.464Z,101925.75
2023-04-16T14:14:52.984Z,101925.38
2023-04-16T14:17:20.342Z,101920.53
2023-04-16T14:19:47.753Z,101915.28
2023-04-16T14:22:17.863Z,101918.41
2023-04-16T14:24:45.452Z,101931.81
2023-04-16T14:27:12.842Z,101919.94
2023-04-16T14:29:41.085Z,101919.16
2023-04-16T14:32:08.671Z,101921.88
2023-04-16T14:34:36.368Z,101929.31
2023-04-16T14:37:04.397Z,101928.50
2023-04-16T14:39:32.009Z,101927.19
2023-04-16T14:41:59.582Z,101940.00
2023-04-16T14:44:27.085Z,101928.66
2023-04-16T14:46:55.450Z,101923.94
2023-04-16T14:49:22.956Z,101926.84
2023-04-16T14:51:50.716Z,101925.00
2023-04-16T14:54:19.581Z,101927.31
2023-04-16T14:56:47.594Z,101927.50
2023-04-16T14:59:15.131Z,101918.28
2023-04-16T15:01:43.211Z,101925.59
2023-04-16T15:04:10.917Z,101925.72
2023-04-16T15:06:38.522Z,101921.66
2023-04-16T15:09:07.540Z,101929.88
2023-04-16T15:11:35.242Z,101934.06
2023-04-16T15:14:02.655Z,101930.03
2023-04-16T15:16:30.740Z,101927.91
2023-04-16T15:18:58.830Z,101928.69
2023-04-16T15:21:28.050Z,101923.91
2023-04-16T15:23:55.446Z,101919.25
2023-04-16T15:26:23.331Z,101915.88
2023-04-16T15:28:50.685Z,101915.59
2023-04-16T15:31:20.953Z,101927.44
2023-04-16T15:33:49.643Z,101927.56
2023-04-16T15:36:17.169Z,101925.81
2023-04-16T15:38:44.922Z,101926.03
2023-04-16T15:41:12.854Z,101919.84
2023-04-16T15:43:40.651Z,101923.66
2023-04-16T15:46:08.955Z,101925.28
2023-04-16T15:48:36.485Z,101909.81
2023-04-16T15:51:06.052Z,101926.03
2023-04-16T15:53:34.661Z,101926.75
2023-04-16T15:56:02.099Z,101943.53
2023-04-16T15:58:29.641Z,101934.63
2023-04-16T16:00:57.218Z,101936.03
2023-04-16T16:03:24.709Z,101935.41
2023-04-16T16:05:52.248Z,101938.06
2023-04-16T16:08:19.764Z,101937.53
2023-04-16T16:10:47.478Z,101942.81
2023-04-16T16:13:18.170Z,101943.63
2023-04-16T16:15:45.803Z,101948.44
2023-04-16T16:18:13.153Z,101935.59
2023-04-16T16:20:40.716Z,101944.41
2023-04-16T16:23:08.162Z,101944.78
2023-04-16T16:25:36.020Z,101948.94
2023-04-16T16:28:06.310Z,101953.06
2023-04-16T16:30:34.326Z,101951.41
2023-04-16T16:33:01.805Z,101959.84
2023-04-16T16:35:29.571Z,101963.81
2023-04-16T16:37:57.404Z,101967.16
2023-04-16T16:40:25.353Z,101961.94
2023-04-16T16:42:52.905Z,101966.41
2023-04-16T16:45:20.281Z,101970.78
2023-04-16T16:47:48.883Z,101978.28
2023-04-16T16:50:16.738Z,101975.44
2023-04-16T16:52:44.656Z,101980.97
2023-04-16T16:55:12.197Z,101980.31
2023-04-16T16:57:39.912Z,101985.06
2023-04-16T17:00:14.461Z,101988.44
2023-04-16T17:02:42.173Z,101990.78
2023-04-16T17:05:09.934Z,101991.31
2023-04-16T17:07:37.971Z,101991.47
2023-04-16T17:10:07.002Z,101989.28
2023-04-16T17:12:35.686Z,101991.97
2023-04-16T17:15:03.163Z,101991.81
2023-04-16T17:17:31.760Z,101992.63
2023-04-16T17:20:01.018Z,102003.78
2023-04-16T17:22:28.702Z,102002.59
2023-04-16T17:24:56.355Z,102001.16
2023-04-16T17:27:23.697Z,102013.00
2023-04-16T17:29:51.196Z,102006.59
2023-04-16T17:32:18.763Z,102017.41
2023-04-16T17:34:46.394Z,102017.88
2023-04-16T17:37:14.190Z,102018.38
2023-04-16T17:39:41.681Z,102012.97
2023-04-16T17:42:09.104Z,102014.25
2023-04-16T17:44:36.466Z,102014.59
2023-04-16T17:47:04.454Z,102007.19
2023-04-16T17:49:31.973Z,102004.81
2023-04-16T17:51:59.358Z,102013.50
2023-04-16T17:54:26.733Z,102014.25
2023-04-16T17:56:54.093Z,102021.34
2023-04-16T17:59:22.050Z,102018.59
2023-04-16T18:01:49.772Z,102026.25
2023-04-16T18:04:17.802Z,102020.44
2023-04-16T18:06:45.782Z,102023.81
2023-04-16T18:09:14.402Z,102031.25
2023-04-16T18:11:42.321Z,102024.34
2023-04-16T18:14:11.883Z,102023.69
2023-04-16T18:16:39.525Z,102021.13
2023-04-16T18:19:07.067Z,102035.75
2023-04-16T18:21:35.884Z,102031.63
2023-04-16T18:24:03.619Z,102026.84
2023-04-16T18:26:32.372Z,102034.09
2023-04-16T18:29:03.981Z,102023.16
2023-04-16T18:31:32.180Z,102016.19
2023-04-16T18:33:59.751Z,102019.69
2023-04-16T18:36:27.455Z,102022.38
2023-04-16T18:39:02.100Z,102019.44
2023-04-16T18:41:31.271Z,102014.66
2023-04-16T18:43:58.728Z,102020.59
2023-04-16T18:46:27.536Z,102012.31
2023-04-16T18:48:55.832Z,102018.38
2023-04-16T18:51:23.418Z,102021.16
2023-04-16T18:53:53.309Z,102016.28
2023-04-16T18:56:20.963Z,102024.63
2023-04-16T18:58:48.341Z,102015.69
2023-04-16T19:01:16.675Z,102024.97
2023-04-16T19:03:44.216Z,102023.44
2023-04-16T19:06:11.723Z,102022.28
2023-04-16T19:08:39.359Z,102025.16
2023-04-16T19:11:06.726Z,102021.25
2023-04-16T19:13:34.266Z,102022.94
2023-04-16T19:16:02.342Z,102021.31
2023-04-16T19:18:29.854Z,102025.00
2023-04-16T19:21:01.276Z,102027.38
2023-04-16T19:23:29.281Z,102022.97
2023-04-16T19:25:57.223Z,102027.34
2023-04-16T19:28:25.808Z,102017.03
2023-04-16T19:30:54.092Z,102023.59
2023-04-16T19:33:21.869Z,102025.50
2023-04-16T19:35:49.304Z,102018.13
2023-04-16T19:38:17.164Z,102019.41
2023-04-16T19:40:46.743Z,102021.19
2023-04-16T19:43:14.746Z,102021.31
2023-04-16T19:45:46.682Z,102018.22
2023-04-16T19:48:15.652Z,102006.59
2023-04-16T19:50:43.141Z,102019.41
2023-04-16T19:53:11.611Z,102024.44
2023-04-16T19:55:39.904Z,102028.72
2023-04-16T19:58:10.718Z,102025.56
2023-04-16T20:00:43.457Z,102015.97
2023-04-16T20:03:11.111Z,102027.47
2023-04-16T20:05:39.029Z,102019.81
2023-04-16T20:08:06.627Z,102029.34
2023-04-16T20:10:34.284Z,102025.69
2023-04-16T20:13:01.731Z,102033.03
2023-04-16T20:15:29.476Z,102024.94
2023-04-16T20:17:56.926Z,102025.69
2023-04-16T20:20:24.536Z,102023.13
2023-04-16T20:22:51.967Z,102019.72
2023-04-16T20:25:19.672Z,102022.16
2023-04-16T20:27:47.159Z,102016.09
2023-04-16T20:30:14.922Z,102014.09
2023-04-16T20:32:42.549Z,102018.09
2023-04-16T20:35:11.584Z,102018.50
2023-04-16T20:37:39.235Z,102009.59
2023-04-16T20:40:08.945Z,102007.22
2023-04-16T20:42:36.670Z,102008.75
2023-04-16T20:45:04.993Z,102005.66
2023-04-16T20:47:35.890Z,102004.41
2023-04-16T20:50:03.900Z,101999.13
2023-04-16T20:52:31.482Z,102007.06
2023-04-16T20:54:59.071Z,102001.97
2023-04-16T20:57:28.174Z,101994.63
2023-04-16T20:59:56.516Z,101991.38
2023-04-16T21:02:24.446Z,101991.22
2023-04-16T21:04:53.106Z,101990.13
2023-04-16T21:07:20.998Z,101991.81
2023-04-16T21:09:48.368Z,101986.44
2023-04-16T21:12:16.089Z,101985.16
2023-04-16T21:14:43.575Z,101982.75
2023-04-16T21:17:10.884Z,101975.25
2023-04-16T21:19:38.322Z,101974.13
2023-04-16T21:22:06.010Z,101970.03
2023-04-16T21:24:34.160Z,101967.50
2023-04-16T21:27:03.457Z,101972.56
2023-04-16T21:29:30.982Z,101966.22
2023-04-16T21:31:58.411Z,101966.50
2023-04-16T21:34:25.743Z,101974.56
2023-04-16T21:36:53.213Z,101974.84
2023-04-16T21:39:21.899Z,101968.03
2023-04-16T21:41:49.562Z,101965.38
2023-04-16T21:44:16.998Z,101966.22
2023-04-16T21:46:44.633Z,101956.03
2023-04-16T21:49:12.543Z,101952.78
2023-04-16T21:51:40.695Z,101960.00
2023-04-16T21:54:08.213Z,101953.66
2023-04-16T21:56:36.099Z,101955.88
2023-04-16T21:59:03.809Z,101946.84
2023-04-16T22:01:31.685Z,101947.97
2023-04-16T22:03:59.174Z,101949.66
2023-04-16T22:06:27.307Z,101944.84
2023-04-16T22:08:54.700Z,101940.09
2023-04-16T22:11:22.673Z,101930.75
2023-04-16T22:13:50.716Z,101933.97
2023-04-16T22:16:18.273Z,101933.28
2023-04-16T22:18:47.374Z,101929.31
2023-04-16T22:21:14.932Z,101930.03
2023-04-16T22:23:42.364Z,101922.84
2023-04-16T22:26:10.143Z,101917.72
2023-04-16T22:28:37.571Z,101917.44
2023-04-16T22:31:05.101Z,101919.28
2023-04-16T22:33:32.475Z,101922.94
2023-04-16T22:36:00.689Z,101917.38
2023-04-16T22:38:28.089Z,101916.03
2023-04-16T22:40:55.447Z,101914.50
2023-04-16T22:43:23.095Z,101913.78
2023-04-16T22:46:00.364Z,101913.72
2023-04-16T22:48:28.153Z,101912.88
2023-04-16T22:50:55.508Z,101909.22
2023-04-16T22:53:23.174Z,101908.94
2023-04-16T22:55:51.204Z,101909.81
2023-04-16T22:58:18.756Z,101901.75
2023-04-16T23:00:47.658Z,101904.16
2023-04-16T23:03:15.746Z,101901.44
2023-04-16T23:05:43.156Z,101896.78
2023-04-16T23:08:10.710Z,101901.63
2023-04-16T23:10:38.234Z,101899.31
2023-04-16T23:13:05.883Z,101895.31
2023-04-16T23:15:33.273Z,101899.31
2023-04-16T23:18:00.879Z,101902.31
2023-04-16T23:20:29.147Z,101901.19
2023-04-16T23:22:56.600Z,101901.47
2023-04-16T23:25:24.212Z,101900.31
2023-04-16T23:27:51.921Z,101897.53
2023-04-16T23:30:19.412Z,101899.50
2023-04-16T23:32:46.969Z,101904.56
2023-04-16T23:35:20.537Z,101897.19
2023-04-16T23:37:47.925Z,101902.75
2023-04-16T23:40:15.801Z,101906.38
2023-04-16T23:42:44.012Z,101900.56
2023-04-16T23:45:11.787Z,101902.16
2023-04-16T23:47:39.355Z,101905.44
2023-04-16T23:50:07.208Z,101899.59
2023-04-16T23:52:35.838Z,101907.38
2023-04-16T23:55:03.380Z,101905.69
2023-04-16T23:57:31.084Z,101909.22
2023-04-16T23:59:58.504Z,101911.28
